createdAt,value
2019-05-20T00:02:28.474Z,40.70
2019-05-20T00:04:57.927Z,40.73
2019-05-20T00:07:26.854Z,43.17
2019-05-20T00:09:55.995Z,57.50
2019-05-20T00:12:25.304Z,53.43
2019-05-20T00:14:54.344Z,52.30
2019-05-20T00:17:23.515Z,58.90
2019-05-20T00:19:52.699Z,56.70
2019-05-20T00:22:21.836Z,57.83
2019-05-20T00:24:50.951Z,56.87
2019-05-20T00:27:20.149Z,61.50
2019-05-20T00:29:49.323Z,68.60
2019-05-20T00:32:18.340Z,65.57
2019-05-20T00:34:47.382Z,60.80
2019-05-20T00:37:16.465Z,62.60
2019-05-20T00:39:45.563Z,61.70
2019-05-20T00:42:14.660Z,58.50
2019-05-20T00:44:43.753Z,56.63
2019-05-20T00:47:12.955Z,58.27
2019-05-20T00:49:41.962Z,59.23
2019-05-20T00:52:11.074Z,62.97
2019-05-20T00:54:40.194Z,52.90
2019-05-20T00:57:09.331Z,58.63
2019-05-20T00:59:38.416Z,55.10
2019-05-20T01:02:07.528Z,51.73
2019-05-20T01:04:36.635Z,55.90
2019-05-20T01:07:05.715Z,47.10
2019-05-20T01:09:34.866Z,57.03
2019-05-20T01:12:03.996Z,54.67
2019-05-20T01:14:33.130Z,61.07
2019-05-20T01:17:02.115Z,58.17
2019-05-20T01:19:31.280Z,70.00
2019-05-20T01:22:00.484Z,53.87
2019-05-20T01:24:29.606Z,67.30
2019-05-20T01:26:58.848Z,55.90
2019-05-20T01:29:27.971Z,57.73
2019-05-20T01:31:57.146Z,57.20
2019-05-20T01:34:26.137Z,55.00
2019-05-20T01:36:55.354Z,53.97
2019-05-20T01:39:24.652Z,63.37
2019-05-20T01:41:53.663Z,65.07
2019-05-20T01:44:22.896Z,71.50
2019-05-20T01:46:51.957Z,78.70
2019-05-20T01:49:21.053Z,74.20
2019-05-20T01:51:50.128Z,72.27
2019-05-20T01:54:19.233Z,83.13
2019-05-20T01:56:48.420Z,80.90
2019-05-20T01:59:17.535Z,89.77
2019-05-20T02:01:46.741Z,90.00
2019-05-20T02:04:15.793Z,78.70
2019-05-20T02:06:44.832Z,85.00
2019-05-20T02:09:14.036Z,89.07
2019-05-20T02:11:43.098Z,82.83
2019-05-20T02:14:17.146Z,69.63
2019-05-20T02:16:46.431Z,91.10
2019-05-20T02:19:15.439Z,89.73
2019-05-20T02:21:44.651Z,90.93
2019-05-20T02:24:13.774Z,95.07
2019-05-20T02:26:42.921Z,100.17
2019-05-20T02:29:12.250Z,112.60
2019-05-20T02:31:41.373Z,114.90
2019-05-20T02:34:10.565Z,115.73
2019-05-20T02:36:39.663Z,109.47
2019-05-20T02:39:08.902Z,128.50
2019-05-20T02:41:38.010Z,112.07
2019-05-20T02:44:07.423Z,122.33
2019-05-20T02:46:36.575Z,108.90
2019-05-20T02:49:05.703Z,131.37
2019-05-20T02:51:34.993Z,138.67
2019-05-20T02:54:04.164Z,120.17
2019-05-20T02:56:33.267Z,121.67
2019-05-20T02:59:02.408Z,118.43
2019-05-20T03:01:31.539Z,120.50
2019-05-20T03:04:11.460Z,133.17
2019-05-20T03:06:31.347Z,129.77
2019-05-20T03:09:00.452Z,140.33
2019-05-20T03:11:29.608Z,131.03
2019-05-20T03:13:58.803Z,134.17
2019-05-20T03:16:27.851Z,121.40
2019-05-20T03:18:56.856Z,124.47
2019-05-20T03:21:26.004Z,129.67
2019-05-20T03:23:55.031Z,114.97
2019-05-20T03:26:24.126Z,120.33
2019-05-20T03:28:53.274Z,125.80
2019-05-20T03:31:22.370Z,122.57
2019-05-20T03:33:51.490Z,132.47
2019-05-20T03:36:20.603Z,115.50
2019-05-20T03:38:49.699Z,125.37
2019-05-20T03:41:18.839Z,137.77
2019-05-20T03:43:48.075Z,121.67
2019-05-20T03:46:17.168Z,122.97
2019-05-20T03:48:46.212Z,118.17
2019-05-20T03:51:15.393Z,135.10
2019-05-20T03:53:44.494Z,127.90
2019-05-20T03:56:13.422Z,144.07
2019-05-20T03:58:42.595Z,117.80
2019-05-20T04:01:11.758Z,121.10
2019-05-20T04:03:40.802Z,117.53
2019-05-20T04:06:10.052Z,110.80
2019-05-20T04:08:39.282Z,114.40
2019-05-20T04:11:08.421Z,128.73
2019-05-20T04:13:39.316Z,118.37
2019-05-20T04:16:08.333Z,115.77
2019-05-20T04:18:37.486Z,124.40
2019-05-20T04:21:06.707Z,122.03
2019-05-20T04:23:35.933Z,126.07
2019-05-20T04:26:05.105Z,111.27
2019-05-20T04:28:34.260Z,104.00
2019-05-20T04:31:03.333Z,111.47
2019-05-20T04:33:32.393Z,109.63
2019-05-20T04:36:01.605Z,101.07
2019-05-20T04:38:31.040Z,110.90
2019-05-20T04:41:00.171Z,117.67
2019-05-20T04:43:29.467Z,129.57
2019-05-20T04:45:58.449Z,137.53
2019-05-20T04:48:27.552Z,134.27
2019-05-20T04:50:56.773Z,113.27
2019-05-20T04:53:25.860Z,113.63
2019-05-20T04:55:55.015Z,110.10
2019-05-20T04:58:24.056Z,108.57
2019-05-20T05:00:57.481Z,116.47
2019-05-20T05:03:27.460Z,120.60
2019-05-20T05:05:56.562Z,108.57
2019-05-20T05:08:25.656Z,122.33
2019-05-20T05:10:54.836Z,125.67
2019-05-20T05:13:24.163Z,116.30
2019-05-20T05:15:53.224Z,113.20
2019-05-20T05:18:22.410Z,114.50
2019-05-20T05:20:51.526Z,109.60
2019-05-20T05:23:20.643Z,113.83
2019-05-20T05:25:49.869Z,119.10
2019-05-20T05:28:19.509Z,109.00
2019-05-20T05:30:48.736Z,128.23
2019-05-20T05:33:17.798Z,109.90
2019-05-20T05:35:53.309Z,146.13
2019-05-20T05:38:17.743Z,127.43
2019-05-20T05:40:46.754Z,127.43
2019-05-20T05:43:15.950Z,128.10
2019-05-20T05:45:45.172Z,144.33
2019-05-20T05:48:14.272Z,105.60
2019-05-20T05:50:43.537Z,129.27
2019-05-20T05:53:12.692Z,123.90
2019-05-20T05:55:41.727Z,136.07
2019-05-20T05:58:10.800Z,111.80
2019-05-20T06:00:40.014Z,115.93
2019-05-20T06:03:09.230Z,123.77
2019-05-20T06:05:38.146Z,104.77
2019-05-20T06:08:07.416Z,102.03
2019-05-20T06:10:36.588Z,134.23
2019-05-20T06:13:05.828Z,113.63
2019-05-20T06:15:34.990Z,110.50
2019-05-20T06:18:04.225Z,122.67
2019-05-20T06:20:33.555Z,119.20
2019-05-20T06:23:02.796Z,120.83
2019-05-20T06:25:31.811Z,108.13
2019-05-20T06:28:01.141Z,120.13
2019-05-20T06:30:39.014Z,107.97
2019-05-20T06:33:08.249Z,110.73
2019-05-20T06:35:37.410Z,122.30
2019-05-20T06:38:09.651Z,125.67
2019-05-20T06:40:38.785Z,127.23
2019-05-20T06:43:07.877Z,114.37
2019-05-20T06:45:36.908Z,110.20
2019-05-20T06:48:05.946Z,113.20
2019-05-20T06:50:35.063Z,122.07
2019-05-20T06:53:04.310Z,126.17
2019-05-20T06:55:33.453Z,113.97
2019-05-20T06:58:02.447Z,118.60
2019-05-20T07:00:36.170Z,113.60
2019-05-20T07:03:05.536Z,121.20
2019-05-20T07:05:34.825Z,113.93
2019-05-20T07:08:03.844Z,99.47
2019-05-20T07:10:32.923Z,101.67
2019-05-20T07:13:02.037Z,108.80
2019-05-20T07:15:31.269Z,116.53
2019-05-20T07:18:00.332Z,108.40
2019-05-20T07:20:29.379Z,109.80
2019-05-20T07:22:58.741Z,104.70
2019-05-20T07:25:28.017Z,107.43
2019-05-20T07:27:58.085Z,84.57
2019-05-20T07:30:27.264Z,105.47
2019-05-20T07:32:56.364Z,99.63
2019-05-20T07:35:30.827Z,87.53
2019-05-20T07:37:56.381Z,92.47
2019-05-20T07:40:34.620Z,99.03
2019-05-20T07:43:05.354Z,89.87
2019-05-20T07:45:35.426Z,83.53
2019-05-20T07:48:05.475Z,95.30
2019-05-20T07:50:35.650Z,82.80
2019-05-20T07:53:04.746Z,82.53
2019-05-20T07:55:34.972Z,95.30
2019-05-20T07:58:06.888Z,80.83
2019-05-20T08:00:36.452Z,81.50
2019-05-20T08:03:05.590Z,80.67
2019-05-20T08:05:34.799Z,87.47
2019-05-20T08:08:04.020Z,94.87
2019-05-20T08:10:33.277Z,89.47
2019-05-20T08:13:02.587Z,88.67
2019-05-20T08:15:31.857Z,82.23
2019-05-20T08:18:01.121Z,77.33
2019-05-20T08:20:30.348Z,82.20
2019-05-20T08:22:59.496Z,83.67
2019-05-20T08:25:28.667Z,81.50
2019-05-20T08:27:58.009Z,80.93
2019-05-20T08:30:36.697Z,84.90
2019-05-20T08:33:05.918Z,76.93
2019-05-20T08:35:34.948Z,77.13
2019-05-20T08:38:04.000Z,79.73
2019-05-20T08:40:33.218Z,72.87
2019-05-20T08:43:02.272Z,71.77
2019-05-20T08:45:31.475Z,59.50
2019-05-20T08:48:00.568Z,68.93
2019-05-20T08:50:29.739Z,69.83
2019-05-20T08:52:58.891Z,65.10
2019-05-20T08:55:28.069Z,66.87
2019-05-20T08:57:58.062Z,74.13
2019-05-20T09:00:27.572Z,70.23
2019-05-20T09:02:56.806Z,60.20
2019-05-20T09:05:28.323Z,67.77
2019-05-20T09:08:03.047Z,61.20
2019-05-20T09:10:28.147Z,65.17
2019-05-20T09:12:57.270Z,55.33
2019-05-20T09:15:26.364Z,55.70
2019-05-20T09:17:55.406Z,54.50
2019-05-20T09:20:24.690Z,60.67
2019-05-20T09:22:53.942Z,56.83
2019-05-20T09:25:30.476Z,56.33
2019-05-20T09:27:59.968Z,53.07
2019-05-20T09:30:29.210Z,73.23
2019-05-20T09:32:58.276Z,58.50
2019-05-20T09:35:27.412Z,56.57
2019-05-20T09:37:56.431Z,57.63
2019-05-20T09:40:54.093Z,55.10
2019-05-20T09:43:23.324Z,58.83
2019-05-20T09:46:06.435Z,54.30
2019-05-20T09:48:25.198Z,56.53
2019-05-20T09:50:54.316Z,58.63
2019-05-20T09:53:24.144Z,53.37
2019-05-20T09:55:53.315Z,55.10
2019-05-20T09:58:22.432Z,55.90
2019-05-20T10:00:51.612Z,53.03
2019-05-20T10:03:20.816Z,53.67
2019-05-20T10:05:50.083Z,50.60
2019-05-20T10:08:36.297Z,54.63
2019-05-20T10:10:50.180Z,52.10
2019-05-20T10:13:19.244Z,58.23
2019-05-20T10:15:48.257Z,50.47
2019-05-20T10:18:35.571Z,59.57
2019-05-20T10:20:48.107Z,53.70
2019-05-20T10:23:17.292Z,55.23
2019-05-20T10:25:46.368Z,50.37
2019-05-20T10:28:15.463Z,52.43
2019-05-20T10:30:44.496Z,54.27
2019-05-20T10:33:13.576Z,54.00
2019-05-20T10:35:42.638Z,48.57
2019-05-20T10:38:11.674Z,43.80
2019-05-20T10:40:40.691Z,50.63
2019-05-20T10:43:09.781Z,49.90
2019-05-20T10:45:38.868Z,45.33
2019-05-20T10:48:09.153Z,49.23
2019-05-20T10:50:38.390Z,47.30
2019-05-20T10:53:07.508Z,50.37
2019-05-20T10:55:36.586Z,51.73
2019-05-20T10:58:05.644Z,47.80
2019-05-20T11:00:34.732Z,45.77
2019-05-20T11:03:03.683Z,44.90
2019-05-20T11:05:32.764Z,46.47
2019-05-20T11:08:01.859Z,52.37
2019-05-20T11:10:30.954Z,52.07
2019-05-20T11:13:00.548Z,46.70
2019-05-20T11:15:29.653Z,54.47
2019-05-20T11:17:58.673Z,52.83
2019-05-20T11:20:27.758Z,53.20
2019-05-20T11:23:00.887Z,53.97
2019-05-20T11:25:27.992Z,53.40
2019-05-20T11:27:56.903Z,56.37
2019-05-20T11:30:25.854Z,52.80
2019-05-20T11:32:54.975Z,56.57
2019-05-20T11:35:24.144Z,60.83
2019-05-20T11:37:53.306Z,56.27
2019-05-20T11:40:22.315Z,58.03
2019-05-20T11:42:51.373Z,62.73
2019-05-20T11:45:20.388Z,66.67
2019-05-20T11:47:49.468Z,66.47
2019-05-20T11:50:18.507Z,57.87
2019-05-20T11:52:47.659Z,58.80
2019-05-20T11:55:16.719Z,61.50
2019-05-20T11:57:45.866Z,62.27
2019-05-20T12:00:14.891Z,55.87
2019-05-20T12:02:43.942Z,54.90
2019-05-20T12:05:13.064Z,51.90
2019-05-20T12:07:42.111Z,51.67
2019-05-20T12:10:11.258Z,50.50
2019-05-20T12:12:40.390Z,59.27
2019-05-20T12:15:09.552Z,63.90
2019-05-20T12:17:38.657Z,55.40
2019-05-20T12:20:09.853Z,55.30
2019-05-20T12:22:38.735Z,56.73
2019-05-20T12:25:07.934Z,49.03
2019-05-20T12:27:37.063Z,51.90
2019-05-20T12:30:06.285Z,51.07
2019-05-20T12:32:35.365Z,47.30
2019-05-20T12:35:04.913Z,45.87
2019-05-20T12:37:34.143Z,52.33
2019-05-20T12:40:07.571Z,48.47
2019-05-20T12:42:34.157Z,47.97
2019-05-20T12:45:03.194Z,46.37
2019-05-20T12:47:32.392Z,48.97
2019-05-20T12:50:01.494Z,46.63
2019-05-20T12:52:30.607Z,50.83
2019-05-20T12:55:08.027Z,49.50
2019-05-20T12:57:30.617Z,53.33
2019-05-20T12:59:59.832Z,53.77
2019-05-20T13:02:28.904Z,45.53
2019-05-20T13:04:57.988Z,49.80
2019-05-20T13:07:27.169Z,42.10
2019-05-20T13:09:56.203Z,41.83
2019-05-20T13:12:25.397Z,42.30
2019-05-20T13:14:54.639Z,45.47
2019-05-20T13:17:24.008Z,44.30
2019-05-20T13:19:53.363Z,41.70
2019-05-20T13:22:22.512Z,45.63
2019-05-20T13:24:51.749Z,46.07
2019-05-20T13:27:20.967Z,44.60
2019-05-20T13:29:50.133Z,44.20
2019-05-20T13:32:19.334Z,40.43
2019-05-20T13:34:48.301Z,38.60
2019-05-20T13:37:17.549Z,35.50
2019-05-20T13:39:46.690Z,39.23
2019-05-20T13:42:15.665Z,42.87
2019-05-20T13:44:44.742Z,43.37
2019-05-20T13:47:13.954Z,43.93
2019-05-20T13:49:43.023Z,41.70
2019-05-20T13:52:12.118Z,45.43
2019-05-20T13:54:41.159Z,39.80
2019-05-20T13:57:12.877Z,42.00
2019-05-20T13:59:41.636Z,45.87
2019-05-20T14:02:10.720Z,44.53
2019-05-20T14:04:39.755Z,43.77
2019-05-20T14:07:09.038Z,50.90
2019-05-20T14:09:38.189Z,42.50
2019-05-20T14:12:07.340Z,46.83
2019-05-20T14:14:36.448Z,40.50
2019-05-20T14:17:05.616Z,42.60
2019-05-20T14:19:35.356Z,41.80
2019-05-20T14:22:04.501Z,41.30
2019-05-20T14:24:33.422Z,44.70
2019-05-20T14:27:02.655Z,52.83
2019-05-20T14:29:31.803Z,50.43
2019-05-20T14:32:00.793Z,46.43
2019-05-20T14:34:29.846Z,50.93
2019-05-20T14:36:59.004Z,49.57
2019-05-20T14:39:28.203Z,45.67
2019-05-20T14:41:57.498Z,50.27
2019-05-20T14:44:26.716Z,50.17
2019-05-20T14:46:55.861Z,54.70
2019-05-20T14:49:25.076Z,51.83
2019-05-20T14:51:54.463Z,51.80
2019-05-20T14:54:23.600Z,58.73
2019-05-20T14:56:52.772Z,55.90
2019-05-20T14:59:22.016Z,54.50
2019-05-20T15:01:51.234Z,54.07
2019-05-20T15:04:20.431Z,56.57
2019-05-20T15:06:49.587Z,61.10
2019-05-20T15:09:18.776Z,58.33
2019-05-20T15:11:48.053Z,54.00
2019-05-20T15:14:17.206Z,64.10
2019-05-20T15:16:46.377Z,61.70
2019-05-20T15:19:15.340Z,62.00
2019-05-20T15:21:44.561Z,64.97
2019-05-20T15:24:13.679Z,67.43
2019-05-20T15:26:42.980Z,63.20
2019-05-20T15:29:26.875Z,71.80
2019-05-20T15:31:43.108Z,67.90
2019-05-20T15:34:12.354Z,77.83
2019-05-20T15:36:41.493Z,67.33
2019-05-20T15:39:10.699Z,72.00
2019-05-20T15:41:39.807Z,76.27
2019-05-20T15:44:09.059Z,80.60
2019-05-20T15:46:38.098Z,85.07
2019-05-20T15:49:07.370Z,82.10
2019-05-20T15:51:36.347Z,74.17
2019-05-20T15:54:05.400Z,84.83
2019-05-20T15:56:34.459Z,80.27
2019-05-20T15:59:03.534Z,74.33
2019-05-20T16:01:32.801Z,79.13
2019-05-20T16:04:01.942Z,89.10
2019-05-20T16:06:31.043Z,79.87
2019-05-20T16:09:00.236Z,85.90
2019-05-20T16:11:29.449Z,79.50
2019-05-20T16:13:58.535Z,78.40
2019-05-20T16:16:27.731Z,76.53
2019-05-20T16:18:56.948Z,83.83
2019-05-20T16:21:26.231Z,81.13
2019-05-20T16:23:55.268Z,91.37
2019-05-20T16:26:24.322Z,88.50
2019-05-20T16:28:53.489Z,83.90
2019-05-20T16:31:22.692Z,77.60
2019-05-20T16:33:51.824Z,79.33
2019-05-20T16:36:21.013Z,82.13
2019-05-20T16:38:50.315Z,81.77
2019-05-20T16:41:19.584Z,79.70
2019-05-20T16:43:48.662Z,70.40
2019-05-20T16:46:17.999Z,77.87
2019-05-20T16:48:47.114Z,69.23
2019-05-20T16:51:16.313Z,69.63
2019-05-20T16:53:45.503Z,73.53
2019-05-20T16:56:14.798Z,72.33
2019-05-20T16:58:44.179Z,72.07
2019-05-20T17:01:13.551Z,68.50
2019-05-20T17:03:42.668Z,82.47
2019-05-20T17:06:11.843Z,71.47
2019-05-20T17:08:41.161Z,61.90
2019-05-20T17:11:10.293Z,70.57
2019-05-20T17:13:39.486Z,66.00
2019-05-20T17:16:08.627Z,71.40
2019-05-20T17:18:38.456Z,71.83
2019-05-20T17:21:07.715Z,65.73
2019-05-20T17:23:36.860Z,63.07
2019-05-20T17:26:05.991Z,64.93
2019-05-20T17:28:35.100Z,66.20
2019-05-20T17:31:04.176Z,67.23
2019-05-20T17:33:33.239Z,68.53
2019-05-20T17:36:02.379Z,61.63
2019-05-20T17:38:31.402Z,63.27
2019-05-20T17:41:00.400Z,60.43
2019-05-20T17:43:29.429Z,65.73
2019-05-20T17:45:58.484Z,71.73
2019-05-20T17:48:28.365Z,65.47
2019-05-20T17:50:57.509Z,52.70
2019-05-20T17:53:26.938Z,62.50
2019-05-20T17:55:56.020Z,62.33
2019-05-20T17:58:25.173Z,63.73
2019-05-20T18:00:54.436Z,71.40
2019-05-20T18:03:23.605Z,57.83
2019-05-20T18:05:52.737Z,64.50
2019-05-20T18:08:24.565Z,62.07
2019-05-20T18:10:52.402Z,65.90
2019-05-20T18:13:21.549Z,65.40
2019-05-20T18:15:50.617Z,63.97
2019-05-20T18:18:19.610Z,70.77
2019-05-20T18:20:48.590Z,63.07
2019-05-20T18:23:17.715Z,62.87
2019-05-20T18:25:46.812Z,65.83
2019-05-20T18:28:15.831Z,64.90
2019-05-20T18:30:44.914Z,62.57
2019-05-20T18:33:14.012Z,71.00
2019-05-20T18:35:43.102Z,69.07
2019-05-20T18:38:12.160Z,70.23
2019-05-20T18:40:41.378Z,60.97
2019-05-20T18:43:10.477Z,64.47
2019-05-20T18:45:39.618Z,60.00
2019-05-20T18:48:08.729Z,63.43
2019-05-20T18:50:37.885Z,76.70
2019-05-20T18:53:06.955Z,65.40
2019-05-20T18:55:36.237Z,75.33
2019-05-20T18:58:05.627Z,68.47
2019-05-20T19:00:34.830Z,69.57
2019-05-20T19:03:04.070Z,80.27
2019-05-20T19:05:33.154Z,84.70
2019-05-20T19:08:02.301Z,76.83
2019-05-20T19:10:31.409Z,79.63
2019-05-20T19:13:00.502Z,89.23
2019-05-20T19:15:29.676Z,80.53
2019-05-20T19:17:58.787Z,76.23
2019-05-20T19:20:27.924Z,89.63
2019-05-20T19:22:56.956Z,77.40
2019-05-20T19:25:37.365Z,83.20
2019-05-20T19:27:56.971Z,81.73
2019-05-20T19:30:25.962Z,77.27
2019-05-20T19:32:55.210Z,99.37
2019-05-20T19:35:24.427Z,81.03
2019-05-20T19:37:53.583Z,80.73
2019-05-20T19:40:22.722Z,76.67
2019-05-20T19:42:51.781Z,79.30
2019-05-20T19:45:20.995Z,81.03
2019-05-20T19:47:50.089Z,85.40
2019-05-20T19:50:19.330Z,85.30
2019-05-20T19:52:48.669Z,80.20
2019-05-20T19:55:19.063Z,85.17
2019-05-20T19:57:48.315Z,77.83
2019-05-20T20:00:17.512Z,74.47
2019-05-20T20:02:47.182Z,92.23
2019-05-20T20:05:16.236Z,83.53
2019-05-20T20:07:45.374Z,80.27
2019-05-20T20:10:14.376Z,84.70
2019-05-20T20:12:43.542Z,79.03
2019-05-20T20:15:17.588Z,80.47
2019-05-20T20:17:46.880Z,72.63
2019-05-20T20:20:16.129Z,85.67
2019-05-20T20:22:45.378Z,76.30
2019-05-20T20:25:14.489Z,68.70
2019-05-20T20:27:43.584Z,78.27
2019-05-20T20:30:12.706Z,83.73
2019-05-20T20:32:41.977Z,69.37
2019-05-20T20:35:11.191Z,68.23
2019-05-20T20:37:40.383Z,68.30
2019-05-20T20:40:09.439Z,75.10
2019-05-20T20:42:38.961Z,78.10
2019-05-20T20:45:08.263Z,78.23
2019-05-20T20:47:42.406Z,76.10
2019-05-20T20:50:09.016Z,74.13
2019-05-20T20:52:38.126Z,72.53
2019-05-20T20:55:07.215Z,74.30
2019-05-20T20:57:36.648Z,72.17
2019-05-20T21:00:06.424Z,69.40
2019-05-20T21:02:35.584Z,75.23
2019-05-20T21:05:04.972Z,71.53
2019-05-20T21:07:34.430Z,66.37
2019-05-20T21:10:03.803Z,68.83
2019-05-20T21:12:32.972Z,66.27
2019-05-20T21:15:02.378Z,71.70
2019-05-20T21:17:31.642Z,66.93
2019-05-20T21:20:00.752Z,68.53
2019-05-20T21:22:29.938Z,78.30
2019-05-20T21:24:59.079Z,58.80
2019-05-20T21:27:28.085Z,76.10
2019-05-20T21:29:57.100Z,65.23
2019-05-20T21:32:26.292Z,69.53
2019-05-20T21:34:55.639Z,71.30
2019-05-20T21:37:24.780Z,68.77
2019-05-20T21:39:53.867Z,71.53
2019-05-20T21:42:22.922Z,65.27
2019-05-20T21:44:52.137Z,69.57
2019-05-20T21:47:21.282Z,64.13
2019-05-20T21:49:50.459Z,66.87
2019-05-20T21:52:19.780Z,70.73
2019-05-20T21:54:49.019Z,67.00
2019-05-20T21:57:18.069Z,59.63
2019-05-20T21:59:47.229Z,66.97
2019-05-20T22:02:16.351Z,67.67
2019-05-20T22:04:45.583Z,63.00
2019-05-20T22:07:15.028Z,62.10
2019-05-20T22:09:44.255Z,64.40
2019-05-20T22:12:13.363Z,59.70
2019-05-20T22:14:42.384Z,61.47
2019-05-20T22:17:11.587Z,58.93
2019-05-20T22:19:40.746Z,58.57
2019-05-20T22:22:25.505Z,55.73
2019-05-20T22:24:54.744Z,67.27
2019-05-20T22:27:23.806Z,66.00
2019-05-20T22:29:52.846Z,59.27
2019-05-20T22:32:39.607Z,56.13
2019-05-20T22:35:08.681Z,55.80
2019-05-20T22:37:37.819Z,60.07
2019-05-20T22:40:06.842Z,58.60
2019-05-20T22:42:35.868Z,54.00
2019-05-20T22:45:05.475Z,62.90
2019-05-20T22:47:34.580Z,67.17
2019-05-20T22:50:03.723Z,64.37
2019-05-20T22:52:32.911Z,61.57
2019-05-20T22:55:01.997Z,57.10
2019-05-20T22:57:31.032Z,55.10
2019-05-20T23:00:00.288Z,56.23
2019-05-20T23:02:29.379Z,56.27
2019-05-20T23:04:58.395Z,63.03
2019-05-20T23:07:27.321Z,54.83
2019-05-20T23:09:56.503Z,58.20
2019-05-20T23:12:25.618Z,56.73
2019-05-20T23:14:54.828Z,57.13
2019-05-20T23:17:24.153Z,51.73
2019-05-20T23:19:53.144Z,54.90
2019-05-20T23:22:22.260Z,51.20
2019-05-20T23:24:51.382Z,54.60
2019-05-20T23:27:20.433Z,56.87
2019-05-20T23:29:49.508Z,64.03
2019-05-20T23:32:18.733Z,56.93
2019-05-20T23:34:48.008Z,62.50
2019-05-20T23:37:17.223Z,59.07
2019-05-20T23:39:46.499Z,62.33
2019-05-20T23:42:15.603Z,59.80
2019-05-20T23:44:44.728Z,61.40
2019-05-20T23:47:13.818Z,57.90
2019-05-20T23:49:42.851Z,60.30
2019-05-20T23:52:12.059Z,54.83
2019-05-20T23:54:41.182Z,47.60
2019-05-20T23:57:10.285Z,51.80
2019-05-20T23:59:39.476Z,49.43
